Windsor, Wisconsin
Current Conditions -  °F | °C
As of 2:53 PM on Thursday 23 Oct 2014 (Local Time) from KMSN Reporting Station
Light Rain Light Rain  
Wind Chill: 50°   Ceiling: 3500
Heat Index: 50°   Visibility: 6mi
Dew Point: 47°   Wind: 3mph
Humidity: 89%   Direction: 240°WSW
Pressure: 30.04"   Gusts: NA
Location:  43.22°N, 89.34°W
Report Text: KMSN 231953Z 24003KT 6SM -RA BR BKN035 BKN043 OVC090 10/08 A3004 RMK AO2 SLP178 P0006 T01000083
Loading
Personal Weather Stations






























Interactive Weather Map
Tropical Storm Tracking
New forecast layout! Learn more

10-Day Weather Forecast

Advertisements
Track Severe Weather on mobile